Time;durP1;ratioP1;P1;durP2;ratioP2;P2;SDS_P1;SDS_P2;PMS_P1;PMS_P2;Temp;Humidity;BMP_temperature;BMP_pressure;BME280_temperature;BME280_humidity;BME280_pressure;Samples;Min_cycle;Max_cycle;Signal;HPM_P1;HPM_P2
2023/10/04 00:00:14;;;;;;;0.20;0.20;;;12.40;99.90;;;;;;5107106;28;20531;-80
2023/10/04 00:02:45;;;;;;;0.10;0.10;;;12.40;99.90;;;;;;5085643;28;20479;-79
2023/10/04 00:05:14;;;;;;;0.20;0.20;;;12.40;99.90;;;;;;5088929;28;20943;-80
2023/10/04 00:07:41;;;;;;;0.20;0.20;;;12.30;99.90;;;;;;5093056;28;20435;-82
2023/10/04 00:10:07;;;;;;;0.20;0.20;;;12.30;99.90;;;;;;5086185;28;20443;-80
2023/10/04 00:12:33;;;;;;;0.20;0.20;;;12.30;99.90;;;;;;5070766;28;20439;-79
2023/10/04 00:14:58;;;;;;;0.20;0.20;;;12.30;99.90;;;;;;5097759;28;20483;-80
2023/10/04 00:17:24;;;;;;;0.10;0.10;;;12.30;99.90;;;;;;5102546;28;20220;-80
2023/10/04 00:19:49;;;;;;;0.20;0.20;;;12.30;99.90;;;;;;5078753;28;20180;-80
2023/10/04 00:22:19;;;;;;;0.20;0.20;;;12.30;99.90;;;;;;5088834;28;20181;-80
2023/10/04 00:24:44;;;;;;;0.20;0.20;;;12.20;99.90;;;;;;5097850;28;20261;-80
2023/10/04 00:27:10;;;;;;;0.10;0.10;;;12.30;99.90;;;;;;5095714;28;21005;-79
2023/10/04 00:29:36;;;;;;;0.20;0.20;;;12.30;99.90;;;;;;5079493;28;20181;-80
2023/10/04 00:32:03;;;;;;;0.10;0.10;;;12.30;99.90;;;;;;5090834;28;20653;-81
2023/10/04 00:34:29;;;;;;;0.10;0.10;;;12.30;99.90;;;;;;5095514;28;20257;-80
2023/10/04 00:36:55;;;;;;;0.20;0.20;;;12.30;99.90;;;;;;5105048;28;20477;-81
2023/10/04 00:39:20;;;;;;;0.20;0.20;;;12.30;99.90;;;;;;5100048;28;20172;-81
2023/10/04 00:41:47;;;;;;;0.20;0.20;;;12.30;99.90;;;;;;5096203;28;20445;-82
2023/10/04 00:44:12;;;;;;;0.20;0.20;;;12.30;99.90;;;;;;5101287;28;20276;-81
2023/10/04 00:46:41;;;;;;;0.20;0.20;;;12.30;99.90;;;;;;5102380;28;20533;-81
2023/10/04 00:49:08;;;;;;;0.20;0.20;;;12.30;99.90;;;;;;5092458;28;20556;-81
2023/10/04 00:51:36;;;;;;;0.20;0.20;;;12.30;99.90;;;;;;5104293;28;20423;-81
2023/10/04 00:54:07;;;;;;;0.20;0.20;;;12.30;99.90;;;;;;5094082;28;20438;-81
2023/10/04 00:56:35;;;;;;;0.20;0.20;;;12.30;99.90;;;;;;5099673;28;20430;-81
2023/10/04 00:59:03;;;;;;;0.20;0.20;;;12.20;99.90;;;;;;5089670;28;20816;-82
2023/10/04 01:01:30;;;;;;;0.20;0.20;;;12.20;99.90;;;;;;5090925;28;20491;-81
2023/10/04 01:03:56;;;;;;;0.20;0.20;;;12.20;99.90;;;;;;5095072;28;20918;-81
2023/10/04 01:06:21;;;;;;;0.20;0.20;;;12.30;99.90;;;;;;5106836;28;20584;-82
2023/10/04 01:08:47;;;;;;;0.20;0.20;;;12.20;99.90;;;;;;5103416;28;20188;-81
2023/10/04 01:11:13;;;;;;;0.20;0.20;;;12.30;99.90;;;;;;5103140;28;20302;-82
2023/10/04 01:13:40;;;;;;;0.10;0.10;;;12.20;99.90;;;;;;5098427;28;20522;-82
2023/10/04 01:16:09;;;;;;;0.20;0.20;;;12.30;99.90;;;;;;5070438;28;20687;-82
2023/10/04 01:18:38;;;;;;;0.10;0.10;;;12.30;99.90;;;;;;5099323;28;20418;-82
2023/10/04 01:21:03;;;;;;;0.20;0.20;;;12.30;99.90;;;;;;5089443;28;20471;-81
2023/10/04 01:23:29;;;;;;;0.10;0.10;;;12.30;99.90;;;;;;5074919;28;20479;-82
2023/10/04 01:25:54;;;;;;;0.20;0.20;;;12.30;99.90;;;;;;5093573;28;20189;-83
2023/10/04 01:28:30;;;;;;;0.20;0.20;;;12.20;99.90;;;;;;5098045;28;20856;-81
2023/10/04 01:30:59;;;;;;;0.20;0.20;;;12.20;99.90;;;;;;5096120;28;20180;-81
2023/10/04 01:33:24;;;;;;;0.10;0.10;;;12.20;99.90;;;;;;5092846;28;20776;-82
2023/10/04 01:35:53;;;;;;;0.10;0.10;;;12.20;99.90;;;;;;5090084;28;20431;-81
2023/10/04 01:38:32;;;;;;;0.20;0.20;;;12.20;99.90;;;;;;5087910;28;20181;-82
2023/10/04 01:40:57;;;;;;;0.20;0.20;;;12.20;99.90;;;;;;5093379;28;21146;-82
2023/10/04 01:43:27;;;;;;;0.20;0.20;;;12.20;99.90;;;;;;5089342;28;20955;-81
2023/10/04 01:45:57;;;;;;;0.20;0.20;;;12.20;99.90;;;;;;5097151;28;20750;-81
2023/10/04 01:48:23;;;;;;;0.20;0.20;;;12.20;99.90;;;;;;5083143;28;20553;-81
2023/10/04 01:50:51;;;;;;;0.10;0.10;;;12.30;99.90;;;;;;5108772;28;20450;-80
2023/10/04 01:53:18;;;;;;;0.10;0.10;;;12.30;99.90;;;;;;5081010;28;20957;-81
2023/10/04 01:55:44;;;;;;;0.20;0.20;;;12.30;99.90;;;;;;5074750;28;20471;-80
2023/10/04 01:58:10;;;;;;;0.20;0.20;;;12.30;99.90;;;;;;5102732;28;20952;-81
2023/10/04 02:00:36;;;;;;;0.10;0.10;;;12.20;99.90;;;;;;5092997;28;20229;-80
2023/10/04 02:03:02;;;;;;;0.20;0.20;;;12.20;99.90;;;;;;5100348;28;20845;-81
2023/10/04 02:05:31;;;;;;;0.20;0.20;;;12.20;99.90;;;;;;5112724;28;20426;-82
2023/10/04 02:07:58;;;;;;;0.20;0.20;;;12.20;99.90;;;;;;5112547;28;20433;-82
2023/10/04 02:10:24;;;;;;;0.20;0.20;;;12.30;99.90;;;;;;5093349;28;20504;-81
2023/10/04 02:12:56;;;;;;;0.10;0.10;;;12.20;99.90;;;;;;5093602;28;20431;-82
2023/10/04 02:15:22;;;;;;;0.10;0.10;;;12.30;99.90;;;;;;5102802;28;20435;-82
2023/10/04 02:17:50;;;;;;;0.10;0.10;;;12.30;99.90;;;;;;5112671;28;20460;-81
2023/10/04 02:20:35;;;;;;;0.20;0.20;;;12.30;99.90;;;;;;5085916;28;20485;-81
2023/10/04 02:23:03;;;;;;;0.10;0.10;;;12.30;99.90;;;;;;5104233;28;20831;-81
2023/10/04 02:25:29;;;;;;;0.10;0.10;;;12.30;99.90;;;;;;5090768;28;20471;-81
2023/10/04 02:28:01;;;;;;;0.10;0.10;;;12.30;99.90;;;;;;5097483;28;20864;-81
2023/10/04 02:30:26;;;;;;;0.20;0.20;;;12.30;99.90;;;;;;5094929;28;20428;-81
2023/10/04 02:32:57;;;;;;;0.10;0.10;;;12.30;99.90;;;;;;5111758;28;20506;-81
2023/10/04 02:35:39;;;;;;;0.20;0.20;;;12.40;99.90;;;;;;5097491;28;20181;-83
2023/10/04 02:38:16;;;;;;;0.10;0.10;;;12.40;99.90;;;;;;5091678;28;20469;-81
2023/10/04 02:40:51;;;;;;;0.10;0.10;;;12.40;99.90;;;;;;5091948;28;20455;-81
2023/10/04 02:43:22;;;;;;;0.10;0.10;;;12.40;99.90;;;;;;5076774;28;20519;-82
2023/10/04 02:45:50;;;;;;;0.10;0.10;;;12.40;99.90;;;;;;5074286;28;20515;-81
2023/10/04 02:48:15;;;;;;;0.20;0.20;;;12.40;99.90;;;;;;5090987;28;20430;-82
2023/10/04 02:50:42;;;;;;;0.20;0.20;;;12.40;99.90;;;;;;5100090;28;20422;-82
2023/10/04 02:53:09;;;;;;;0.10;0.10;;;12.40;99.90;;;;;;5104839;28;20176;-83
2023/10/04 02:55:38;;;;;;;0.10;0.10;;;12.40;99.90;;;;;;5092585;28;20426;-82
2023/10/04 02:58:07;;;;;;;0.10;0.10;;;12.40;99.90;;;;;;5109174;28;20475;-82
2023/10/04 03:00:36;;;;;;;0.10;0.10;;;12.40;99.90;;;;;;5091636;28;20455;-82
2023/10/04 03:03:02;;;;;;;0.10;0.10;;;12.40;99.90;;;;;;5110387;28;20414;-82
2023/10/04 03:05:29;;;;;;;0.13;0.13;;;12.40;99.90;;;;;;5093225;28;20436;-83
2023/10/04 03:07:55;;;;;;;0.10;0.10;;;12.40;99.90;;;;;;5100527;28;20434;-82
2023/10/04 03:10:24;;;;;;;0.10;0.10;;;12.40;99.90;;;;;;5109155;28;20517;-82
2023/10/04 03:13:00;;;;;;;0.10;0.10;;;12.40;99.90;;;;;;5081811;28;20435;-82
2023/10/04 03:15:28;;;;;;;0.10;0.10;;;12.40;99.90;;;;;;5089123;28;20837;-83
2023/10/04 03:17:55;;;;;;;0.10;0.10;;;12.30;99.90;;;;;;5096753;28;20829;-82
2023/10/04 03:20:28;;;;;;;0.20;0.20;;;12.30;99.90;;;;;;5092080;28;20431;-82
2023/10/04 03:22:55;;;;;;;0.10;0.10;;;12.30;99.90;;;;;;5097745;28;20433;-83
2023/10/04 03:25:24;;;;;;;0.10;0.10;;;12.30;99.90;;;;;;5112063;28;20433;-83
2023/10/04 03:27:49;;;;;;;0.10;0.10;;;12.30;99.90;;;;;;5101769;28;20457;-82
2023/10/04 03:30:15;;;;;;;0.20;0.20;;;12.30;99.90;;;;;;5094075;28;20847;-81
2023/10/04 03:32:43;;;;;;;0.10;0.10;;;12.20;99.90;;;;;;5106315;28;20234;-82
2023/10/04 03:35:14;;;;;;;0.10;0.10;;;12.20;99.90;;;;;;5092948;28;20427;-82
2023/10/04 03:37:47;;;;;;;0.13;0.13;;;12.20;99.90;;;;;;5095418;28;20427;-82
2023/10/04 03:40:14;;;;;;;0.10;0.10;;;12.10;99.90;;;;;;5111801;28;20430;-82
2023/10/04 03:42:41;;;;;;;0.10;0.10;;;12.10;99.90;;;;;;5092811;28;20435;-84
2023/10/04 03:45:10;;;;;;;0.20;0.20;;;12.10;99.90;;;;;;5092989;28;20550;-82
2023/10/04 03:47:37;;;;;;;0.20;0.20;;;12.10;99.90;;;;;;5094403;28;20538;-83
2023/10/04 03:50:06;;;;;;;0.17;0.17;;;12.10;99.90;;;;;;5078055;28;20467;-82
2023/10/04 03:52:31;;;;;;;0.20;0.20;;;12.10;99.90;;;;;;5107608;28;20417;-82
2023/10/04 03:54:57;;;;;;;0.20;0.20;;;12.10;99.90;;;;;;5111188;28;20785;-82
2023/10/04 03:57:24;;;;;;;0.20;0.20;;;12.10;99.90;;;;;;5091374;28;20275;-83
2023/10/04 03:59:51;;;;;;;0.10;0.10;;;12.00;99.90;;;;;;5095960;28;20217;-83
2023/10/04 04:02:16;;;;;;;0.20;0.20;;;12.00;99.90;;;;;;5118883;27;20563;-81
2023/10/04 04:04:42;;;;;;;0.20;0.20;;;12.10;99.90;;;;;;5104618;28;20572;-83
2023/10/04 04:07:08;;;;;;;0.20;0.20;;;12.10;99.90;;;;;;5097482;28;20644;-83
2023/10/04 04:09:33;;;;;;;0.10;0.10;;;12.10;99.90;;;;;;5109544;28;20834;-82
2023/10/04 04:11:59;;;;;;;0.20;0.20;;;12.10;99.90;;;;;;5105479;28;20536;-82
2023/10/04 04:14:25;;;;;;;0.10;0.10;;;12.20;99.90;;;;;;5099723;28;20177;-81
2023/10/04 04:16:51;;;;;;;0.20;0.20;;;12.20;99.90;;;;;;5092045;28;20427;-81
2023/10/04 04:19:19;;;;;;;0.10;0.10;;;12.20;99.90;;;;;;5077606;28;20180;-81
2023/10/04 04:21:46;;;;;;;0.20;0.20;;;12.20;99.90;;;;;;5092491;28;20180;-82
2023/10/04 04:24:12;;;;;;;0.10;0.10;;;12.20;99.90;;;;;;5095061;28;20481;-82
2023/10/04 04:26:39;;;;;;;0.20;0.20;;;12.10;99.90;;;;;;5078342;28;20431;-82
2023/10/04 04:29:04;;;;;;;0.10;0.10;;;12.10;99.90;;;;;;5074134;28;20181;-82
2023/10/04 04:31:30;;;;;;;0.20;0.20;;;12.00;99.90;;;;;;5091881;28;20438;-82
2023/10/04 04:33:55;;;;;;;0.20;0.20;;;12.00;99.90;;;;;;5072714;28;20193;-82
2023/10/04 04:36:27;;;;;;;0.20;0.20;;;12.00;99.90;;;;;;5094330;28;20204;-82
2023/10/04 04:38:53;;;;;;;0.20;0.20;;;11.90;99.90;;;;;;5099705;28;20188;-82
2023/10/04 04:41:25;;;;;;;0.10;0.10;;;11.90;99.90;;;;;;5103147;28;20427;-82
2023/10/04 04:43:53;;;;;;;0.10;0.10;;;11.90;99.90;;;;;;5089769;28;20879;-82
2023/10/04 04:46:18;;;;;;;0.10;0.10;;;11.90;99.90;;;;;;5096910;28;20434;-82
2023/10/04 04:48:47;;;;;;;0.20;0.20;;;11.80;99.90;;;;;;5096786;28;20438;-82
2023/10/04 04:51:18;;;;;;;0.20;0.20;;;11.80;99.90;;;;;;5093368;28;20197;-81
2023/10/04 04:53:48;;;;;;;0.10;0.10;;;11.80;99.90;;;;;;5101434;28;20471;-82
2023/10/04 04:56:14;;;;;;;0.20;0.20;;;11.70;99.90;;;;;;5086505;28;20453;-82
2023/10/04 04:58:47;;;;;;;0.20;0.20;;;11.70;99.90;;;;;;5068957;28;20419;-82
2023/10/04 05:01:14;;;;;;;0.20;0.20;;;11.70;99.90;;;;;;5083270;28;20532;-82
2023/10/04 05:03:45;;;;;;;0.20;0.20;;;11.70;99.90;;;;;;5090891;28;20471;-83
2023/10/04 05:06:14;;;;;;;0.10;0.10;;;11.70;99.90;;;;;;5098823;28;20779;-82
2023/10/04 05:08:41;;;;;;;0.20;0.20;;;11.70;99.90;;;;;;5101437;28;20446;-82
2023/10/04 05:11:09;;;;;;;0.20;0.20;;;11.70;99.90;;;;;;5088261;28;20512;-83
2023/10/04 05:13:35;;;;;;;0.20;0.20;;;11.70;99.90;;;;;;5077214;28;20569;-83
2023/10/04 05:16:00;;;;;;;0.20;0.20;;;11.60;99.90;;;;;;5093395;28;20502;-84
2023/10/04 05:18:26;;;;;;;0.20;0.20;;;11.70;99.90;;;;;;5106753;28;20576;-83
2023/10/04 05:20:54;;;;;;;0.20;0.20;;;11.60;99.90;;;;;;5101973;28;20535;-83
2023/10/04 05:23:25;;;;;;;0.20;0.20;;;11.70;99.90;;;;;;5090183;28;20818;-84
2023/10/04 05:25:55;;;;;;;0.20;0.20;;;11.70;99.90;;;;;;5092709;28;20806;-84
2023/10/04 05:28:24;;;;;;;0.10;0.10;;;11.70;99.90;;;;;;5081668;28;20897;-84
2023/10/04 05:30:51;;;;;;;0.20;0.20;;;11.70;99.90;;;;;;5084805;28;20451;-85
2023/10/04 05:33:18;;;;;;;0.20;0.20;;;11.70;99.90;;;;;;5090890;28;20530;-85
2023/10/04 05:35:45;;;;;;;0.10;0.10;;;11.70;99.90;;;;;;5095124;28;20431;-84
2023/10/04 05:38:12;;;;;;;0.13;0.13;;;11.80;99.90;;;;;;5099176;28;20421;-83
2023/10/04 05:40:39;;;;;;;0.10;0.10;;;11.80;99.90;;;;;;5098642;28;20435;-84
2023/10/04 05:43:06;;;;;;;0.20;0.20;;;11.80;99.90;;;;;;5108856;28;20534;-83
2023/10/04 05:45:32;;;;;;;0.20;0.20;;;11.80;99.90;;;;;;5085227;28;20427;-83
2023/10/04 05:47:59;;;;;;;0.20;0.20;;;11.90;99.90;;;;;;5106310;28;20445;-83
2023/10/04 05:50:26;;;;;;;0.10;0.10;;;11.90;99.90;;;;;;5078205;28;21310;-83
2023/10/04 05:52:53;;;;;;;0.20;0.20;;;11.80;99.90;;;;;;5097424;28;20436;-84
2023/10/04 05:55:20;;;;;;;0.10;0.10;;;11.90;99.90;;;;;;5093515;28;20419;-83
2023/10/04 05:57:50;;;;;;;0.10;0.10;;;11.90;99.90;;;;;;5097219;28;20431;-83
2023/10/04 06:00:27;;;;;;;0.20;0.20;;;11.90;99.90;;;;;;5103302;28;20465;-83
2023/10/04 06:03:01;;;;;;;0.20;0.20;;;11.90;99.90;;;;;;5081200;28;20805;-83
2023/10/04 06:05:28;;;;;;;0.10;0.10;;;11.90;99.90;;;;;;5101435;28;20430;-82
2023/10/04 06:07:59;;;;;;;0.20;0.20;;;11.90;99.90;;;;;;5077352;28;20441;-83
2023/10/04 06:10:25;;;;;;;0.20;0.20;;;11.90;99.90;;;;;;5100192;28;20433;-82
2023/10/04 06:12:53;;;;;;;0.20;0.20;;;11.90;99.90;;;;;;5103624;28;20419;-83
2023/10/04 06:15:20;;;;;;;0.20;0.20;;;12.00;99.90;;;;;;5094461;28;20169;-83
2023/10/04 06:17:46;;;;;;;0.20;0.20;;;12.00;99.90;;;;;;5075983;28;20919;-83
2023/10/04 06:20:23;;;;;;;0.10;0.10;;;12.10;99.90;;;;;;5095453;28;20426;-83
2023/10/04 06:23:05;;;;;;;0.10;0.10;;;12.10;99.90;;;;;;5093038;28;20435;-82
2023/10/04 06:25:31;;;;;;;0.10;0.10;;;12.10;99.90;;;;;;5102992;28;20431;-83
2023/10/04 06:27:59;;;;;;;0.20;0.20;;;12.10;99.90;;;;;;5075965;28;20423;-84
2023/10/04 06:30:27;;;;;;;0.20;0.20;;;12.00;99.90;;;;;;5104538;28;20434;-82
2023/10/04 06:32:55;;;;;;;0.20;0.20;;;12.00;99.90;;;;;;5096704;28;20431;-83
2023/10/04 06:35:24;;;;;;;0.10;0.10;;;12.00;99.90;;;;;;5101770;28;20455;-83
2023/10/04 06:37:55;;;;;;;0.10;0.10;;;12.00;99.90;;;;;;5093035;28;20449;-82
2023/10/04 06:40:22;;;;;;;0.10;0.10;;;12.00;99.90;;;;;;5084279;28;20446;-81
2023/10/04 06:42:49;;;;;;;0.20;0.20;;;12.00;99.90;;;;;;5097254;28;20450;-81
2023/10/04 06:45:16;;;;;;;0.10;0.10;;;12.10;99.90;;;;;;5094997;28;20463;-81
2023/10/04 06:47:44;;;;;;;0.10;0.10;;;12.00;99.90;;;;;;5091009;28;20447;-81
2023/10/04 06:50:20;;;;;;;0.10;0.10;;;12.00;99.90;;;;;;5086010;28;20435;-81
2023/10/04 06:52:47;;;;;;;0.20;0.20;;;12.10;99.90;;;;;;5101105;28;20986;-81
2023/10/04 06:55:13;;;;;;;0.10;0.10;;;12.10;99.90;;;;;;5092164;28;20476;-81
2023/10/04 06:57:39;;;;;;;0.20;0.20;;;12.20;99.90;;;;;;5083884;28;20500;-80
2023/10/04 07:00:14;;;;;;;0.20;0.20;;;12.30;99.90;;;;;;5089665;28;20524;-82
2023/10/04 07:02:40;;;;;;;0.20;0.20;;;12.20;99.90;;;;;;5091815;28;20179;-81
2023/10/04 07:05:07;;;;;;;0.20;0.20;;;12.20;99.90;;;;;;5091740;28;20475;-79
2023/10/04 07:07:33;;;;;;;0.10;0.10;;;12.20;99.90;;;;;;5102757;28;20952;-83
2023/10/04 07:09:58;;;;;;;0.20;0.20;;;12.10;99.90;;;;;;5097706;28;20515;-82
2023/10/04 07:12:24;;;;;;;0.20;0.20;;;12.10;99.90;;;;;;5082881;28;20185;-81
2023/10/04 07:14:49;;;;;;;0.10;0.10;;;12.10;99.90;;;;;;5089404;28;20189;-81
2023/10/04 07:17:19;;;;;;;0.10;0.10;;;12.10;99.90;;;;;;5090500;28;20533;-81
2023/10/04 07:19:44;;;;;;;0.20;0.20;;;12.20;99.90;;;;;;5097986;28;20196;-80
2023/10/04 07:22:10;;;;;;;0.13;0.13;;;12.40;99.90;;;;;;5092028;28;20935;-82
2023/10/04 07:24:37;;;;;;;0.10;0.10;;;12.50;99.90;;;;;;5091079;28;20242;-82
2023/10/04 07:27:03;;;;;;;0.10;0.10;;;12.60;99.90;;;;;;5078383;28;20187;-82
2023/10/04 07:29:29;;;;;;;0.10;0.10;;;12.70;99.90;;;;;;5092213;28;20427;-82
2023/10/04 07:31:56;;;;;;;0.10;0.10;;;12.80;99.90;;;;;;5100099;28;20192;-81
2023/10/04 07:34:23;;;;;;;0.10;0.10;;;12.90;99.90;;;;;;5086232;28;20801;-81
2023/10/04 07:36:51;;;;;;;0.10;0.10;;;13.00;99.90;;;;;;5094025;28;20973;-81
2023/10/04 07:39:16;;;;;;;0.10;0.10;;;13.10;99.90;;;;;;5110984;28;20422;-81
2023/10/04 07:41:42;;;;;;;0.10;0.10;;;13.30;99.90;;;;;;5091032;28;20458;-82
2023/10/04 07:44:10;;;;;;;0.10;0.10;;;13.20;99.90;;;;;;5101521;28;20638;-81
2023/10/04 07:46:35;;;;;;;0.10;0.10;;;13.30;99.90;;;;;;5079064;28;20176;-83
2023/10/04 07:49:01;;;;;;;0.10;0.10;;;13.40;99.90;;;;;;5084176;28;20434;-83
2023/10/04 07:51:28;;;;;;;0.10;0.10;;;13.50;99.90;;;;;;5104383;28;20173;-79
2023/10/04 07:53:53;;;;;;;0.20;0.20;;;13.70;99.90;;;;;;5091002;28;20481;-80
2023/10/04 07:56:19;;;;;;;0.10;0.10;;;13.80;99.90;;;;;;5110570;28;20423;-80
2023/10/04 07:58:46;;;;;;;0.10;0.10;;;13.90;99.90;;;;;;5105644;28;20196;-80
2023/10/04 08:01:14;;;;;;;0.10;0.10;;;14.00;99.90;;;;;;5089837;28;20201;-81
2023/10/04 08:03:39;;;;;;;0.10;0.10;;;14.20;99.90;;;;;;5093086;28;20965;-81
2023/10/04 08:06:11;;;;;;;0.10;0.10;;;14.10;99.90;;;;;;5096186;28;20446;-81
2023/10/04 08:08:36;;;;;;;0.10;0.10;;;14.10;99.90;;;;;;5092137;28;20621;-82
2023/10/04 08:11:10;;;;;;;0.10;0.10;;;14.20;99.90;;;;;;5085720;28;20458;-84
2023/10/04 08:13:36;;;;;;;0.10;0.10;;;14.30;99.90;;;;;;5096223;28;20218;-80
2023/10/04 08:16:05;;;;;;;0.10;0.10;;;14.30;99.90;;;;;;5094487;28;20469;-84
2023/10/04 08:18:30;;;;;;;0.10;0.10;;;14.50;99.90;;;;;;5091239;28;20211;-78
2023/10/04 08:20:56;;;;;;;0.10;0.10;;;14.70;99.90;;;;;;5093047;28;20473;-86
2023/10/04 08:23:22;;;;;;;0.10;0.10;;;14.70;99.90;;;;;;5071752;28;20176;-86
2023/10/04 08:25:51;;;;;;;0.10;0.10;;;14.80;99.90;;;;;;5095174;28;20454;-81
2023/10/04 08:28:16;;;;;;;0.10;0.10;;;14.90;99.90;;;;;;5095952;28;20668;-86
2023/10/04 08:30:42;;;;;;;0.10;0.10;;;14.90;99.90;;;;;;5099959;28;20441;-85
2023/10/04 08:33:08;;;;;;;0.10;0.10;;;15.00;99.90;;;;;;5092133;28;20195;-85
2023/10/04 08:35:36;;;;;;;0.10;0.10;;;15.20;99.90;;;;;;5099055;28;20322;-86
2023/10/04 08:38:06;;;;;;;0.10;0.10;;;15.30;99.90;;;;;;5104365;28;20429;-87
2023/10/04 08:40:38;;;;;;;0.10;0.10;;;15.40;99.90;;;;;;5084047;28;20441;-85
2023/10/04 08:43:05;;;;;;;0.10;0.10;;;15.30;99.90;;;;;;5089331;28;20435;-86
2023/10/04 08:45:33;;;;;;;0.10;0.10;;;15.10;99.90;;;;;;5087309;28;20435;-86
2023/10/04 08:47:59;;;;;;;0.10;0.10;;;15.40;99.90;;;;;;5071653;28;20824;-86
2023/10/04 08:50:54;;;;;;;0.10;0.10;;;15.70;99.90;;;;;;5092419;28;20486;-86
2023/10/04 08:53:32;;;;;;;0.10;0.10;;;15.70;99.90;;;;;;5090294;28;20477;-86
2023/10/04 08:56:05;;;;;;;0.10;0.10;;;15.60;99.90;;;;;;5090319;28;20407;-86
2023/10/04 08:58:32;;;;;;;0.10;0.10;;;15.60;99.90;;;;;;5090640;28;20434;-86
2023/10/04 09:00:58;;;;;;;0.10;0.10;;;15.60;99.90;;;;;;5097643;28;20911;-87
2023/10/04 09:03:24;;;;;;;0.10;0.10;;;15.90;99.90;;;;;;5090442;28;20433;-87
2023/10/04 09:05:54;;;;;;;0.10;0.10;;;16.10;99.90;;;;;;5098283;28;20458;-86
2023/10/04 09:08:22;;;;;;;0.10;0.10;;;15.90;99.90;;;;;;5099374;28;20435;-86
2023/10/04 09:10:47;;;;;;;0.10;0.10;;;15.80;99.90;;;;;;5114798;28;21012;-87
2023/10/04 09:13:13;;;;;;;0.10;0.10;;;15.80;99.90;;;;;;5114847;28;20430;-86
2023/10/04 09:15:39;;;;;;;0.10;0.10;;;16.20;99.90;;;;;;5114435;28;20176;-86
2023/10/04 09:18:07;;;;;;;0.10;0.10;;;16.50;99.90;;;;;;5111542;28;20180;-86
2023/10/04 09:20:33;;;;;;;0.10;0.10;;;16.70;99.90;;;;;;5076709;28;20177;-88
2023/10/04 09:22:59;;;;;;;0.10;0.10;;;16.90;99.90;;;;;;5091174;28;20449;-87
2023/10/04 09:25:39;;;;;;;0.10;0.10;;;17.00;99.90;;;;;;5094889;28;20292;-87
2023/10/04 09:28:08;;;;;;;0.10;0.10;;;17.20;99.90;;;;;;5094462;28;20435;-87
2023/10/04 09:30:36;;;;;;;0.10;0.10;;;17.50;99.90;;;;;;5077919;28;20439;-87
2023/10/04 09:33:05;;;;;;;0.10;0.10;;;17.60;99.90;;;;;;5093812;28;20480;-87
2023/10/04 09:35:44;;;;;;;0.10;0.10;;;17.60;99.90;;;;;;5091947;28;20459;-87
2023/10/04 09:38:16;;;;;;;0.10;0.10;;;17.80;99.90;;;;;;5091385;28;20503;-85
2023/10/04 09:40:55;;;;;;;0.10;0.10;;;17.90;99.90;;;;;;5107898;28;20434;-86
2023/10/04 09:43:47;;;;;;;0.10;0.10;;;18.00;99.90;;;;;;5094988;28;20439;-87
2023/10/04 09:46:13;;;;;;;0.10;0.10;;;18.00;99.90;;;;;;5091064;28;20581;-86
2023/10/04 09:48:44;;;;;;;0.10;0.10;;;17.20;99.90;;;;;;5081329;28;20945;-88
2023/10/04 09:51:09;;;;;;;0.10;0.10;;;17.50;99.90;;;;;;5113463;28;20263;-88
2023/10/04 09:53:38;;;;;;;0.10;0.10;;;17.60;99.90;;;;;;5101564;28;20544;-89
2023/10/04 09:56:04;;;;;;;0.10;0.10;;;18.20;99.90;;;;;;5097408;28;20203;-88
2023/10/04 09:58:31;;;;;;;0.10;0.10;;;18.60;99.90;;;;;;5085949;28;20422;-89
2023/10/04 10:01:11;;;;;;;0.10;0.10;;;19.00;99.90;;;;;;5105562;28;20471;-89
2023/10/04 10:03:47;;;;;;;0.10;0.10;;;18.90;99.90;;;;;;5090248;28;20462;-91
2023/10/04 10:06:21;;;;;;;0.10;0.10;;;18.30;99.90;;;;;;5089849;28;20979;-89
2023/10/04 10:08:58;;;;;;;0.10;0.10;;;18.10;99.90;;;;;;5082101;28;20443;-88
2023/10/04 10:11:26;;;;;;;0.10;0.10;;;17.60;99.90;;;;;;5091214;28;20426;-88
2023/10/04 10:13:55;;;;;;;0.10;0.10;;;18.30;99.90;;;;;;5095641;28;20431;-86
2023/10/04 10:16:23;;;;;;;0.10;0.07;;;18.80;99.90;;;;;;5101733;28;20431;-88
2023/10/04 10:18:49;;;;;;;0.10;0.00;;;18.90;99.90;;;;;;5097676;28;20434;-87
2023/10/04 10:21:15;;;;;;;0.10;0.00;;;19.30;99.90;;;;;;5094551;28;20455;-88
2023/10/04 10:23:57;;;;;;;0.10;0.00;;;20.30;99.90;;;;;;5097477;28;20469;-89
2023/10/04 10:26:23;;;;;;;0.10;0.10;;;20.00;99.90;;;;;;5101556;28;20441;-88
2023/10/04 10:28:58;;;;;;;0.10;0.00;;;19.80;99.90;;;;;;5081245;28;20746;-93
2023/10/04 10:31:26;;;;;;;0.10;0.00;;;19.90;99.90;;;;;;5092011;28;20199;-90
2023/10/04 10:33:55;;;;;;;0.10;0.00;;;20.30;99.90;;;;;;5100444;28;21308;-88
2023/10/04 10:36:22;;;;;;;0.10;0.00;;;20.40;99.90;;;;;;5057482;28;20440;-87
2023/10/04 10:38:52;;;;;;;0.10;0.00;;;20.60;99.90;;;;;;5092913;28;20439;-89
2023/10/04 10:41:34;;;;;;;0.10;0.00;;;20.90;99.90;;;;;;5093160;28;21028;-91
2023/10/04 10:44:19;;;;;;;0.10;0.00;;;20.90;99.90;;;;;;5075664;28;20474;-89
2023/10/04 10:46:58;;;;;;;0.10;0.00;;;20.90;99.90;;;;;;5092648;28;20428;-92
2023/10/04 10:50:04;;;;;;;0.10;0.00;;;20.90;99.90;;;;;;5110892;28;20444;-91
2023/10/04 10:52:38;;;;;;;0.10;0.00;;;20.80;99.90;;;;;;5066677;28;20973;-87
2023/10/04 10:55:07;;;;;;;0.10;0.00;;;21.90;99.90;;;;;;5091777;28;20482;-87
2023/10/04 10:57:36;;;;;;;0.10;0.00;;;22.10;99.90;;;;;;5072439;28;20484;-86
2023/10/04 11:00:11;;;;;;;0.10;0.00;;;22.60;99.90;;;;;;5091143;28;20477;-88
2023/10/04 11:02:37;;;;;;;0.10;0.00;;;21.70;99.90;;;;;;5093608;28;20788;-87
2023/10/04 11:05:05;;;;;;;0.10;0.00;;;21.90;99.90;;;;;;5093082;28;20996;-89
2023/10/04 11:07:32;;;;;;;0.10;0.00;;;21.70;99.90;;;;;;5072987;28;20181;-89
2023/10/04 11:09:58;;;;;;;0.10;0.00;;;22.00;99.90;;;;;;5090896;28;20458;-92
2023/10/04 11:12:24;;;;;;;0.10;0.00;;;22.10;99.90;;;;;;5090254;28;20474;-88
2023/10/04 11:14:53;;;;;;;0.10;0.00;;;21.20;99.90;;;;;;5090659;28;20431;-88
2023/10/04 11:17:22;;;;;;;0.10;0.00;;;19.90;99.90;;;;;;5085359;28;20530;-88
2023/10/04 11:19:50;;;;;;;0.10;0.00;;;19.50;99.90;;;;;;5096128;28;20547;-86
2023/10/04 11:22:16;;;;;;;0.10;0.00;;;19.70;99.90;;;;;;5095917;28;20945;-86
2023/10/04 11:24:43;;;;;;;0.10;0.00;;;19.90;99.90;;;;;;5089257;28;20477;-88
2023/10/04 11:27:09;;;;;;;0.10;0.00;;;20.40;99.90;;;;;;5098786;28;20173;-88
2023/10/04 11:29:35;;;;;;;0.10;0.00;;;21.10;99.90;;;;;;5103324;28;20446;-90
2023/10/04 11:32:01;;;;;;;0.10;0.00;;;22.00;99.90;;;;;;5093015;28;20488;-86
2023/10/04 11:34:35;;;;;;;0.10;0.00;;;22.10;99.90;;;;;;5083624;28;20430;-86
2023/10/04 11:37:02;;;;;;;0.10;0.00;;;22.60;99.90;;;;;;5099874;28;20229;-88
2023/10/04 11:39:35;;;;;;;0.10;0.00;;;22.30;99.90;;;;;;5093910;28;20441;-88
2023/10/04 11:42:05;;;;;;;0.10;0.00;;;22.50;99.90;;;;;;5093135;28;20434;-87
2023/10/04 11:44:33;;;;;;;0.10;0.00;;;22.30;99.90;;;;;;5109514;28;20466;-88
2023/10/04 11:47:03;;;;;;;0.10;0.00;;;20.90;99.90;;;;;;5078977;28;20438;-89
2023/10/04 11:49:32;;;;;;;0.10;0.00;;;20.70;99.90;;;;;;5100854;28;20434;-86
2023/10/04 11:52:00;;;;;;;0.10;0.00;;;20.00;99.90;;;;;;5086839;28;20495;-87
2023/10/04 11:54:44;;;;;;;0.10;0.00;;;20.30;99.90;;;;;;5091473;28;20842;-86
2023/10/04 11:57:10;;;;;;;0.10;0.00;;;20.90;99.90;;;;;;5094077;28;20446;-86
2023/10/04 11:59:35;;;;;;;0.10;0.00;;;21.30;99.90;;;;;;5104075;28;20481;-87
2023/10/04 12:02:01;;;;;;;0.10;0.00;;;20.80;99.90;;;;;;5111460;28;20636;-88
2023/10/04 12:04:29;;;;;;;0.10;0.00;;;21.30;99.90;;;;;;5076231;28;20220;-87
2023/10/04 12:07:06;;;;;;;0.10;0.00;;;21.20;99.90;;;;;;5110333;28;20437;-87
2023/10/04 12:09:34;;;;;;;0.10;0.00;;;21.40;99.90;;;;;;5083773;28;20430;-89
2023/10/04 12:12:02;;;;;;;0.10;0.00;;;21.60;99.90;;;;;;5091346;28;20514;-88
2023/10/04 12:14:31;;;;;;;0.10;0.10;;;20.90;99.90;;;;;;5091377;28;20794;-88
2023/10/04 12:16:57;;;;;;;0.10;0.00;;;21.00;99.90;;;;;;5093193;28;20437;-87
2023/10/04 12:19:23;;;;;;;0.10;0.00;;;21.70;99.90;;;;;;5110339;28;20455;-87
2023/10/04 12:21:49;;;;;;;0.10;0.00;;;21.70;99.90;;;;;;5102641;28;20942;-86
2023/10/04 12:24:15;;;;;;;0.10;0.00;;;22.50;99.90;;;;;;5060492;28;20478;-86
2023/10/04 12:26:40;;;;;;;0.10;0.00;;;22.90;99.90;;;;;;5088348;28;20246;-89
2023/10/04 12:29:07;;;;;;;0.10;0.00;;;22.90;99.90;;;;;;5088871;28;20219;-89
2023/10/04 12:31:34;;;;;;;0.10;0.00;;;22.50;99.90;;;;;;5107008;28;20180;-88
2023/10/04 12:34:00;;;;;;;0.10;0.00;;;22.90;99.90;;;;;;5111182;28;20414;-89
2023/10/04 12:36:25;;;;;;;0.10;0.00;;;22.70;99.90;;;;;;5092280;28;20445;-88
2023/10/04 12:38:51;;;;;;;0.10;0.00;;;23.10;99.90;;;;;;5090066;28;20427;-86
2023/10/04 12:41:18;;;;;;;0.10;0.00;;;23.50;99.90;;;;;;5086974;28;20192;-85
2023/10/04 12:43:44;;;;;;;0.10;0.00;;;23.80;99.90;;;;;;5089984;28;20483;-85
2023/10/04 12:46:10;;;;;;;0.10;0.00;;;23.60;99.90;;;;;;5081660;28;20490;-87
2023/10/04 12:48:35;;;;;;;0.10;0.00;;;23.10;99.90;;;;;;5075486;28;20465;-90
2023/10/04 12:51:01;;;;;;;0.10;0.00;;;21.60;99.90;;;;;;5094549;28;20187;-90
2023/10/04 12:53:27;;;;;;;0.10;0.00;;;21.70;99.90;;;;;;5092653;28;20423;-87